Portada
METAR-TAF:

METAR-TAF

Aeroports :

Pryor Field Regional Airport

Decatur, Alabama, Estats Units d'Amèrica

latitud: 34-39-29N, longitud: 086-56-36W, altitud: 180 m

Observació

L'informe es va fer fa 47 minuts, a les 11:53 UTC
Vent calma
Temperatura 4°C
Humitat 100%
Pressió 1020 hPa
Visibilitat: 0.8 km
boira

METAR: KDCU 261153Z AUTO 00000KT 1/2SM FG VV002 04/04 A3011 RMK AO2 SLP194 70053 T00440044 10133 20033 53010

Hora: 06:40 (12:40 UTC)


TAF: manca

Observacions i pronòstics meteorològics de més de 4000 aeroports (METAR i TAF).

Les estacions disponibles són els punts grocs i vermells al mapa.

Posi el ratolí al punt desitjat per veure el nom de l'estació.

Feu clic per veure les observacions i els pronòstics meteorològics.

Per canviar el mapa: feu clic els botons verds amb una creu de color negre per apropar; al botó verd amb un guió per allunyar la imatge; o en les fletxes verdes per a mapes adjacents.


METAR-TAF: